sensor_id;sensor_type;location;lat;lon;timestamp;P1;durP1;ratioP1;P2;durP2;ratioP2
35602;SDS011;21725;50.836;4.368;2022-07-25T00:00:28;13.63;;;6.40;;
35602;SDS011;21725;50.836;4.368;2022-07-25T00:02:54;10.40;;;7.10;;
35602;SDS011;21725;50.836;4.368;2022-07-25T00:05:22;10.82;;;6.10;;
35602;SDS011;21725;50.836;4.368;2022-07-25T00:07:55;6.13;;;5.20;;
35602;SDS011;21725;50.836;4.368;2022-07-25T00:10:28;8.77;;;5.85;;
35602;SDS011;21725;50.836;4.368;2022-07-25T00:12:57;8.52;;;4.55;;
35602;SDS011;21725;50.836;4.368;2022-07-25T00:17:48;10.82;;;5.88;;
35602;SDS011;21725;50.836;4.368;2022-07-25T00:20:21;5.75;;;4.10;;
35602;SDS011;21725;50.836;4.368;2022-07-25T00:22:50;9.38;;;4.93;;
35602;SDS011;21725;50.836;4.368;2022-07-25T00:25:16;9.15;;;4.88;;
35602;SDS011;21725;50.836;4.368;2022-07-25T00:27:43;5.45;;;4.07;;
35602;SDS011;21725;50.836;4.368;2022-07-25T00:30:22;7.93;;;4.60;;
35602;SDS011;21725;50.836;4.368;2022-07-25T00:32:48;7.93;;;4.90;;
35602;SDS011;21725;50.836;4.368;2022-07-25T00:35:21;8.52;;;5.05;;
35602;SDS011;21725;50.836;4.368;2022-07-25T00:37:52;6.45;;;4.82;;
35602;SDS011;21725;50.836;4.368;2022-07-25T00:40:29;8.23;;;3.83;;
35602;SDS011;21725;50.836;4.368;2022-07-25T00:42:58;8.63;;;4.95;;
35602;SDS011;21725;50.836;4.368;2022-07-25T00:45:25;9.30;;;4.88;;
35602;SDS011;21725;50.836;4.368;2022-07-25T00:47:50;7.47;;;4.50;;
35602;SDS011;21725;50.836;4.368;2022-07-25T00:50:19;8.18;;;4.40;;
35602;SDS011;21725;50.836;4.368;2022-07-25T00:52:48;9.70;;;4.70;;
35602;SDS011;21725;50.836;4.368;2022-07-25T00:55:14;5.90;;;4.35;;
35602;SDS011;21725;50.836;4.368;2022-07-25T00:57:40;16.10;;;4.65;;
35602;SDS011;21725;50.836;4.368;2022-07-25T01:00:13;8.32;;;4.72;;
35602;SDS011;21725;50.836;4.368;2022-07-25T01:02:49;7.80;;;4.70;;
35602;SDS011;21725;50.836;4.368;2022-07-25T01:05:15;8.95;;;4.75;;
35602;SDS011;21725;50.836;4.368;2022-07-25T01:07:56;7.72;;;5.45;;
35602;SDS011;21725;50.836;4.368;2022-07-25T01:10:23;6.32;;;4.38;;
35602;SDS011;21725;50.836;4.368;2022-07-25T01:12:50;6.90;;;4.50;;
35602;SDS011;21725;50.836;4.368;2022-07-25T01:15:28;7.05;;;5.05;;
35602;SDS011;21725;50.836;4.368;2022-07-25T01:18:02;9.40;;;5.13;;
35602;SDS011;21725;50.836;4.368;2022-07-25T01:20:34;8.18;;;5.40;;
35602;SDS011;21725;50.836;4.368;2022-07-25T01:23:00;8.70;;;5.15;;
35602;SDS011;21725;50.836;4.368;2022-07-25T01:25:26;8.63;;;4.45;;
35602;SDS011;21725;50.836;4.368;2022-07-25T01:27:54;9.50;;;4.80;;
35602;SDS011;21725;50.836;4.368;2022-07-25T01:30:35;8.38;;;5.05;;
35602;SDS011;21725;50.836;4.368;2022-07-25T01:33:01;7.55;;;4.03;;
35602;SDS011;21725;50.836;4.368;2022-07-25T01:35:46;7.90;;;4.45;;
35602;SDS011;21725;50.836;4.368;2022-07-25T01:38:13;7.18;;;4.85;;
35602;SDS011;21725;50.836;4.368;2022-07-25T01:40:46;11.57;;;4.88;;
35602;SDS011;21725;50.836;4.368;2022-07-25T01:43:12;7.40;;;4.50;;
35602;SDS011;21725;50.836;4.368;2022-07-25T01:45:42;9.95;;;5.10;;
35602;SDS011;21725;50.836;4.368;2022-07-25T01:48:08;9.70;;;5.25;;
35602;SDS011;21725;50.836;4.368;2022-07-25T01:50:52;6.50;;;4.65;;
35602;SDS011;21725;50.836;4.368;2022-07-25T01:53:23;6.88;;;4.57;;
35602;SDS011;21725;50.836;4.368;2022-07-25T01:55:50;6.57;;;4.68;;
35602;SDS011;21725;50.836;4.368;2022-07-25T01:58:15;9.50;;;5.03;;
35602;SDS011;21725;50.836;4.368;2022-07-25T02:00:44;9.20;;;5.20;;
35602;SDS011;21725;50.836;4.368;2022-07-25T02:03:10;7.75;;;4.30;;
35602;SDS011;21725;50.836;4.368;2022-07-25T02:05:54;7.45;;;5.05;;
35602;SDS011;21725;50.836;4.368;2022-07-25T02:08:20;8.13;;;4.82;;
35602;SDS011;21725;50.836;4.368;2022-07-25T02:10:46;7.60;;;5.57;;
35602;SDS011;21725;50.836;4.368;2022-07-25T02:13:11;11.48;;;5.32;;
35602;SDS011;21725;50.836;4.368;2022-07-25T02:15:38;9.85;;;5.53;;
35602;SDS011;21725;50.836;4.368;2022-07-25T02:18:04;11.30;;;5.22;;
35602;SDS011;21725;50.836;4.368;2022-07-25T02:20:30;13.85;;;5.32;;
35602;SDS011;21725;50.836;4.368;2022-07-25T02:23:03;7.90;;;5.30;;
35602;SDS011;21725;50.836;4.368;2022-07-25T02:25:30;9.07;;;5.40;;
35602;SDS011;21725;50.836;4.368;2022-07-25T02:27:56;15.38;;;6.85;;
35602;SDS011;21725;50.836;4.368;2022-07-25T02:30:23;7.70;;;5.30;;
35602;SDS011;21725;50.836;4.368;2022-07-25T02:32:53;9.02;;;5.85;;
35602;SDS011;21725;50.836;4.368;2022-07-25T02:35:21;10.07;;;5.50;;
35602;SDS011;21725;50.836;4.368;2022-07-25T02:37:56;7.70;;;5.13;;
35602;SDS011;21725;50.836;4.368;2022-07-25T02:40:22;8.38;;;5.07;;
35602;SDS011;21725;50.836;4.368;2022-07-25T02:42:50;9.02;;;5.70;;
35602;SDS011;21725;50.836;4.368;2022-07-25T02:45:18;9.55;;;5.35;;
35602;SDS011;21725;50.836;4.368;2022-07-25T02:47:45;7.38;;;5.82;;
35602;SDS011;21725;50.836;4.368;2022-07-25T02:50:18;10.13;;;5.30;;
35602;SDS011;21725;50.836;4.368;2022-07-25T02:52:45;9.55;;;5.45;;
35602;SDS011;21725;50.836;4.368;2022-07-25T02:55:11;9.45;;;5.32;;
35602;SDS011;21725;50.836;4.368;2022-07-25T02:57:44;7.35;;;5.75;;
35602;SDS011;21725;50.836;4.368;2022-07-25T03:00:11;8.02;;;5.65;;
35602;SDS011;21725;50.836;4.368;2022-07-25T03:02:38;8.20;;;5.22;;
35602;SDS011;21725;50.836;4.368;2022-07-25T03:05:05;13.88;;;6.32;;
35602;SDS011;21725;50.836;4.368;2022-07-25T03:07:35;8.95;;;5.68;;
35602;SDS011;21725;50.836;4.368;2022-07-25T03:10:02;7.65;;;5.38;;
35602;SDS011;21725;50.836;4.368;2022-07-25T03:12:35;11.70;;;5.68;;
35602;SDS011;21725;50.836;4.368;2022-07-25T03:15:07;10.27;;;5.70;;
35602;SDS011;21725;50.836;4.368;2022-07-25T03:17:37;7.75;;;5.45;;
35602;SDS011;21725;50.836;4.368;2022-07-25T03:20:11;7.28;;;5.20;;
35602;SDS011;21725;50.836;4.368;2022-07-25T03:22:37;7.75;;;5.55;;
35602;SDS011;21725;50.836;4.368;2022-07-25T03:25:03;10.38;;;5.47;;
35602;SDS011;21725;50.836;4.368;2022-07-25T03:27:29;8.13;;;5.38;;
35602;SDS011;21725;50.836;4.368;2022-07-25T03:29:55;7.30;;;5.30;;
35602;SDS011;21725;50.836;4.368;2022-07-25T03:32:25;8.55;;;5.68;;
35602;SDS011;21725;50.836;4.368;2022-07-25T03:34:51;8.75;;;5.40;;
35602;SDS011;21725;50.836;4.368;2022-07-25T03:37:26;8.60;;;4.82;;
35602;SDS011;21725;50.836;4.368;2022-07-25T03:39:56;10.57;;;5.88;;
35602;SDS011;21725;50.836;4.368;2022-07-25T03:42:21;8.55;;;5.15;;
35602;SDS011;21725;50.836;4.368;2022-07-25T03:44:53;10.00;;;6.30;;
35602;SDS011;21725;50.836;4.368;2022-07-25T03:47:19;11.27;;;5.03;;
35602;SDS011;21725;50.836;4.368;2022-07-25T03:49:44;9.30;;;5.80;;
35602;SDS011;21725;50.836;4.368;2022-07-25T03:52:20;7.68;;;5.00;;
35602;SDS011;21725;50.836;4.368;2022-07-25T03:54:48;9.40;;;6.00;;
35602;SDS011;21725;50.836;4.368;2022-07-25T03:57:14;10.02;;;5.63;;
35602;SDS011;21725;50.836;4.368;2022-07-25T03:59:41;8.32;;;5.90;;
35602;SDS011;21725;50.836;4.368;2022-07-25T04:02:06;11.38;;;6.30;;
35602;SDS011;21725;50.836;4.368;2022-07-25T04:04:32;10.02;;;6.45;;
35602;SDS011;21725;50.836;4.368;2022-07-25T04:29:47;8.30;;;4.43;;
35602;SDS011;21725;50.836;4.368;2022-07-25T04:32:13;7.93;;;4.82;;
35602;SDS011;21725;50.836;4.368;2022-07-25T04:34:38;13.95;;;5.47;;
35602;SDS011;21725;50.836;4.368;2022-07-25T04:37:04;9.57;;;4.20;;
35602;SDS011;21725;50.836;4.368;2022-07-25T04:42:16;9.57;;;4.43;;
35602;SDS011;21725;50.836;4.368;2022-07-25T04:44:47;9.13;;;4.97;;
35602;SDS011;21725;50.836;4.368;2022-07-25T04:47:19;9.45;;;4.50;;
35602;SDS011;21725;50.836;4.368;2022-07-25T04:49:44;9.70;;;5.22;;
35602;SDS011;21725;50.836;4.368;2022-07-25T04:52:13;8.57;;;3.65;;
35602;SDS011;21725;50.836;4.368;2022-07-25T04:54:42;9.85;;;4.40;;
35602;SDS011;21725;50.836;4.368;2022-07-25T04:57:13;10.10;;;4.00;;
35602;SDS011;21725;50.836;4.368;2022-07-25T04:59:39;6.88;;;3.55;;
35602;SDS011;21725;50.836;4.368;2022-07-25T05:02:05;6.65;;;3.33;;
35602;SDS011;21725;50.836;4.368;2022-07-25T05:04:30;6.75;;;3.88;;
35602;SDS011;21725;50.836;4.368;2022-07-25T05:06:56;12.82;;;4.53;;
35602;SDS011;21725;50.836;4.368;2022-07-25T05:09:27;7.90;;;3.78;;
35602;SDS011;21725;50.836;4.368;2022-07-25T05:12:01;8.40;;;3.08;;
35602;SDS011;21725;50.836;4.368;2022-07-25T05:14:27;5.72;;;2.90;;
35602;SDS011;21725;50.836;4.368;2022-07-25T05:17:00;8.85;;;3.60;;
35602;SDS011;21725;50.836;4.368;2022-07-25T05:19:26;7.15;;;3.70;;
35602;SDS011;21725;50.836;4.368;2022-07-25T05:21:51;4.53;;;3.30;;
35602;SDS011;21725;50.836;4.368;2022-07-25T05:24:20;8.40;;;2.97;;
35602;SDS011;21725;50.836;4.368;2022-07-25T05:26:47;8.45;;;3.08;;
35602;SDS011;21725;50.836;4.368;2022-07-25T05:29:16;5.47;;;3.08;;
35602;SDS011;21725;50.836;4.368;2022-07-25T05:31:41;5.80;;;2.80;;
35602;SDS011;21725;50.836;4.368;2022-07-25T05:34:13;9.40;;;3.40;;
35602;SDS011;21725;50.836;4.368;2022-07-25T05:36:45;7.05;;;3.10;;
35602;SDS011;21725;50.836;4.368;2022-07-25T05:41:48;21.58;;;4.28;;
35602;SDS011;21725;50.836;4.368;2022-07-25T05:47:19;7.18;;;2.85;;
35602;SDS011;21725;50.836;4.368;2022-07-25T05:49:56;10.18;;;3.58;;
35602;SDS011;21725;50.836;4.368;2022-07-25T05:52:22;6.97;;;2.90;;
35602;SDS011;21725;50.836;4.368;2022-07-25T05:54:48;11.38;;;3.03;;
35602;SDS011;21725;50.836;4.368;2022-07-25T05:57:23;7.68;;;3.30;;
35602;SDS011;21725;50.836;4.368;2022-07-25T05:59:49;10.52;;;2.95;;
35602;SDS011;21725;50.836;4.368;2022-07-25T06:02:23;8.70;;;3.08;;
35602;SDS011;21725;50.836;4.368;2022-07-25T06:05:02;9.90;;;3.63;;
35602;SDS011;21725;50.836;4.368;2022-07-25T06:07:28;14.85;;;3.35;;
35602;SDS011;21725;50.836;4.368;2022-07-25T06:09:54;11.60;;;3.72;;
35602;SDS011;21725;50.836;4.368;2022-07-25T06:12:20;7.28;;;3.75;;
35602;SDS011;21725;50.836;4.368;2022-07-25T06:14:46;6.03;;;3.05;;
35602;SDS011;21725;50.836;4.368;2022-07-25T06:17:12;5.03;;;2.70;;
35602;SDS011;21725;50.836;4.368;2022-07-25T06:19:44;6.60;;;3.50;;
35602;SDS011;21725;50.836;4.368;2022-07-25T06:22:22;4.93;;;3.00;;
35602;SDS011;21725;50.836;4.368;2022-07-25T06:24:54;4.38;;;2.50;;
35602;SDS011;21725;50.836;4.368;2022-07-25T06:27:20;7.15;;;3.80;;
35602;SDS011;21725;50.836;4.368;2022-07-25T06:29:46;12.60;;;3.40;;
35602;SDS011;21725;50.836;4.368;2022-07-25T06:32:12;18.13;;;5.53;;
35602;SDS011;21725;50.836;4.368;2022-07-25T06:34:49;7.97;;;3.25;;
35602;SDS011;21725;50.836;4.368;2022-07-25T06:37:18;5.60;;;2.80;;
35602;SDS011;21725;50.836;4.368;2022-07-25T06:39:44;9.35;;;2.95;;
35602;SDS011;21725;50.836;4.368;2022-07-25T06:42:12;9.00;;;3.22;;
35602;SDS011;21725;50.836;4.368;2022-07-25T06:47:16;7.63;;;2.80;;
35602;SDS011;21725;50.836;4.368;2022-07-25T06:49:42;7.90;;;3.17;;
35602;SDS011;21725;50.836;4.368;2022-07-25T06:52:10;6.93;;;3.30;;
35602;SDS011;21725;50.836;4.368;2022-07-25T06:54:36;7.57;;;3.25;;
35602;SDS011;21725;50.836;4.368;2022-07-25T06:57:02;5.53;;;2.58;;
35602;SDS011;21725;50.836;4.368;2022-07-25T06:59:29;6.60;;;2.78;;
35602;SDS011;21725;50.836;4.368;2022-07-25T07:02:01;13.25;;;3.33;;
35602;SDS011;21725;50.836;4.368;2022-07-25T07:04:53;7.85;;;2.63;;
35602;SDS011;21725;50.836;4.368;2022-07-25T07:07:18;9.07;;;2.92;;
35602;SDS011;21725;50.836;4.368;2022-07-25T07:10:08;10.48;;;2.65;;
35602;SDS011;21725;50.836;4.368;2022-07-25T07:12:41;7.97;;;3.03;;
35602;SDS011;21725;50.836;4.368;2022-07-25T07:15:09;6.00;;;2.70;;
35602;SDS011;21725;50.836;4.368;2022-07-25T07:17:38;7.57;;;2.78;;
35602;SDS011;21725;50.836;4.368;2022-07-25T07:20:04;6.00;;;3.13;;
35602;SDS011;21725;50.836;4.368;2022-07-25T07:22:47;5.68;;;2.85;;
35602;SDS011;21725;50.836;4.368;2022-07-25T07:25:17;6.50;;;3.00;;
35602;SDS011;21725;50.836;4.368;2022-07-25T07:30:50;5.38;;;3.08;;
35602;SDS011;21725;50.836;4.368;2022-07-25T07:33:16;8.43;;;3.30;;
35602;SDS011;21725;50.836;4.368;2022-07-25T07:35:48;6.57;;;2.60;;
35602;SDS011;21725;50.836;4.368;2022-07-25T07:38:26;8.40;;;2.97;;
35602;SDS011;21725;50.836;4.368;2022-07-25T07:40:55;9.55;;;3.13;;
35602;SDS011;21725;50.836;4.368;2022-07-25T07:43:23;7.68;;;2.92;;
35602;SDS011;21725;50.836;4.368;2022-07-25T07:45:50;7.72;;;2.65;;
35602;SDS011;21725;50.836;4.368;2022-07-25T07:48:22;4.95;;;2.40;;
35602;SDS011;21725;50.836;4.368;2022-07-25T07:50:49;6.85;;;2.33;;
35602;SDS011;21725;50.836;4.368;2022-07-25T07:53:22;5.03;;;2.08;;
35602;SDS011;21725;50.836;4.368;2022-07-25T07:56:22;9.18;;;2.83;;
35602;SDS011;21725;50.836;4.368;2022-07-25T07:58:48;4.03;;;2.20;;
35602;SDS011;21725;50.836;4.368;2022-07-25T08:01:24;3.53;;;2.13;;
35602;SDS011;21725;50.836;4.368;2022-07-25T08:03:59;6.30;;;2.33;;
35602;SDS011;21725;50.836;4.368;2022-07-25T08:06:25;5.05;;;2.20;;
35602;SDS011;21725;50.836;4.368;2022-07-25T08:08:58;7.18;;;2.85;;
35602;SDS011;21725;50.836;4.368;2022-07-25T08:11:33;5.03;;;2.22;;
35602;SDS011;21725;50.836;4.368;2022-07-25T08:14:04;6.40;;;2.65;;
35602;SDS011;21725;50.836;4.368;2022-07-25T08:16:37;5.85;;;2.28;;
35602;SDS011;21725;50.836;4.368;2022-07-25T08:19:02;10.63;;;3.45;;
35602;SDS011;21725;50.836;4.368;2022-07-25T08:21:28;5.80;;;3.10;;
35602;SDS011;21725;50.836;4.368;2022-07-25T08:24:03;6.28;;;2.50;;
35602;SDS011;21725;50.836;4.368;2022-07-25T08:26:32;8.63;;;2.88;;
35602;SDS011;21725;50.836;4.368;2022-07-25T08:28:58;5.75;;;2.53;;
35602;SDS011;21725;50.836;4.368;2022-07-25T08:31:25;6.43;;;2.88;;
35602;SDS011;21725;50.836;4.368;2022-07-25T08:34:02;8.15;;;2.42;;
35602;SDS011;21725;50.836;4.368;2022-07-25T08:36:34;3.80;;;2.30;;
35602;SDS011;21725;50.836;4.368;2022-07-25T08:39:00;6.85;;;2.88;;
35602;SDS011;21725;50.836;4.368;2022-07-25T08:41:37;8.88;;;3.38;;
35602;SDS011;21725;50.836;4.368;2022-07-25T08:44:05;5.80;;;2.50;;
35602;SDS011;21725;50.836;4.368;2022-07-25T08:46:33;4.40;;;2.20;;
35602;SDS011;21725;50.836;4.368;2022-07-25T08:49:02;5.78;;;2.90;;
35602;SDS011;21725;50.836;4.368;2022-07-25T08:51:28;7.45;;;2.58;;
35602;SDS011;21725;50.836;4.368;2022-07-25T08:54:01;5.25;;;2.22;;
35602;SDS011;21725;50.836;4.368;2022-07-25T08:56:35;5.15;;;2.65;;
35602;SDS011;21725;50.836;4.368;2022-07-25T08:59:01;6.13;;;2.88;;
35602;SDS011;21725;50.836;4.368;2022-07-25T09:01:28;4.25;;;2.28;;
35602;SDS011;21725;50.836;4.368;2022-07-25T09:03:59;6.95;;;2.28;;
35602;SDS011;21725;50.836;4.368;2022-07-25T09:06:26;6.32;;;2.05;;
35602;SDS011;21725;50.836;4.368;2022-07-25T09:09:01;5.47;;;2.30;;
35602;SDS011;21725;50.836;4.368;2022-07-25T09:11:44;4.30;;;2.30;;
35602;SDS011;21725;50.836;4.368;2022-07-25T09:14:11;5.95;;;2.78;;
35602;SDS011;21725;50.836;4.368;2022-07-25T09:16:43;3.42;;;1.80;;
35602;SDS011;21725;50.836;4.368;2022-07-25T09:19:14;4.40;;;2.90;;
35602;SDS011;21725;50.836;4.368;2022-07-25T09:21:44;5.50;;;2.60;;
35602;SDS011;21725;50.836;4.368;2022-07-25T09:24:27;3.47;;;2.00;;
35602;SDS011;21725;50.836;4.368;2022-07-25T09:26:54;4.03;;;2.13;;
35602;SDS011;21725;50.836;4.368;2022-07-25T09:29:22;9.35;;;2.72;;
35602;SDS011;21725;50.836;4.368;2022-07-25T09:31:50;5.07;;;2.78;;
35602;SDS011;21725;50.836;4.368;2022-07-25T09:37:10;8.73;;;2.85;;
35602;SDS011;21725;50.836;4.368;2022-07-25T09:45:03;6.20;;;3.67;;
35602;SDS011;21725;50.836;4.368;2022-07-25T09:47:31;8.15;;;2.90;;
35602;SDS011;21725;50.836;4.368;2022-07-25T09:49:59;8.43;;;2.97;;
35602;SDS011;21725;50.836;4.368;2022-07-25T09:52:26;6.22;;;2.88;;
35602;SDS011;21725;50.836;4.368;2022-07-25T09:54:52;6.57;;;2.90;;
35602;SDS011;21725;50.836;4.368;2022-07-25T09:59:50;6.35;;;2.60;;
35602;SDS011;21725;50.836;4.368;2022-07-25T10:29:18;6.35;;;2.80;;
35602;SDS011;21725;50.836;4.368;2022-07-25T10:31:45;7.35;;;3.10;;
35602;SDS011;21725;50.836;4.368;2022-07-25T10:34:11;32.60;;;3.83;;
35602;SDS011;21725;50.836;4.368;2022-07-25T10:36:44;11.13;;;3.78;;
35602;SDS011;21725;50.836;4.368;2022-07-25T10:39:18;5.72;;;3.30;;
35602;SDS011;21725;50.836;4.368;2022-07-25T10:41:49;8.05;;;3.85;;
35602;SDS011;21725;50.836;4.368;2022-07-25T10:44:18;6.78;;;2.60;;
35602;SDS011;21725;50.836;4.368;2022-07-25T10:46:44;5.10;;;2.65;;
35602;SDS011;21725;50.836;4.368;2022-07-25T10:49:20;6.70;;;3.42;;
35602;SDS011;21725;50.836;4.368;2022-07-25T10:51:54;8.55;;;3.40;;
35602;SDS011;21725;50.836;4.368;2022-07-25T10:54:34;10.52;;;3.83;;
35602;SDS011;21725;50.836;4.368;2022-07-25T10:57:19;7.82;;;3.30;;
35602;SDS011;21725;50.836;4.368;2022-07-25T10:59:51;6.88;;;3.55;;
35602;SDS011;21725;50.836;4.368;2022-07-25T11:02:17;8.02;;;2.80;;
35602;SDS011;21725;50.836;4.368;2022-07-25T11:04:45;10.48;;;3.63;;
35602;SDS011;21725;50.836;4.368;2022-07-25T11:07:26;8.50;;;3.20;;
35602;SDS011;21725;50.836;4.368;2022-07-25T11:09:57;7.45;;;3.13;;
35602;SDS011;21725;50.836;4.368;2022-07-25T11:15:22;5.00;;;2.33;;
35602;SDS011;21725;50.836;4.368;2022-07-25T11:17:50;7.85;;;2.70;;
35602;SDS011;21725;50.836;4.368;2022-07-25T11:20:17;4.93;;;2.28;;
35602;SDS011;21725;50.836;4.368;2022-07-25T11:22:49;16.08;;;2.92;;
35602;SDS011;21725;50.836;4.368;2022-07-25T11:25:18;8.88;;;3.10;;
35602;SDS011;21725;50.836;4.368;2022-07-25T11:27:49;7.15;;;3.00;;
35602;SDS011;21725;50.836;4.368;2022-07-25T11:30:25;10.15;;;3.30;;
35602;SDS011;21725;50.836;4.368;2022-07-25T11:32:55;9.88;;;3.45;;
35602;SDS011;21725;50.836;4.368;2022-07-25T11:35:24;7.72;;;2.97;;
35602;SDS011;21725;50.836;4.368;2022-07-25T11:38:01;8.05;;;2.50;;
35602;SDS011;21725;50.836;4.368;2022-07-25T11:40:30;7.78;;;2.97;;
35602;SDS011;21725;50.836;4.368;2022-07-25T11:43:06;9.88;;;3.25;;
35602;SDS011;21725;50.836;4.368;2022-07-25T11:45:32;13.68;;;3.88;;
35602;SDS011;21725;50.836;4.368;2022-07-25T11:48:02;7.72;;;2.60;;
35602;SDS011;21725;50.836;4.368;2022-07-25T11:50:29;7.80;;;3.13;;
35602;SDS011;21725;50.836;4.368;2022-07-25T11:52:59;9.50;;;3.15;;
35602;SDS011;21725;50.836;4.368;2022-07-25T11:55:43;9.57;;;3.30;;
35602;SDS011;21725;50.836;4.368;2022-07-25T11:58:11;15.68;;;4.20;;
35602;SDS011;21725;50.836;4.368;2022-07-25T12:00:47;7.25;;;3.50;;
35602;SDS011;21725;50.836;4.368;2022-07-25T12:03:15;11.10;;;5.35;;
35602;SDS011;21725;50.836;4.368;2022-07-25T12:05:42;7.93;;;3.25;;
35602;SDS011;21725;50.836;4.368;2022-07-25T12:08:18;6.47;;;2.80;;
35602;SDS011;21725;50.836;4.368;2022-07-25T12:10:47;6.80;;;2.53;;
35602;SDS011;21725;50.836;4.368;2022-07-25T12:13:27;8.02;;;3.05;;
35602;SDS011;21725;50.836;4.368;2022-07-25T12:16:08;13.35;;;4.63;;
35602;SDS011;21725;50.836;4.368;2022-07-25T12:18:34;9.05;;;3.13;;
35602;SDS011;21725;50.836;4.368;2022-07-25T12:21:02;6.35;;;3.65;;
35602;SDS011;21725;50.836;4.368;2022-07-25T12:23:28;7.97;;;3.10;;
35602;SDS011;21725;50.836;4.368;2022-07-25T12:25:53;7.00;;;3.40;;
35602;SDS011;21725;50.836;4.368;2022-07-25T12:28:20;4.80;;;2.72;;
35602;SDS011;21725;50.836;4.368;2022-07-25T12:30:53;10.02;;;3.65;;
35602;SDS011;21725;50.836;4.368;2022-07-25T12:33:19;9.20;;;3.25;;
35602;SDS011;21725;50.836;4.368;2022-07-25T12:35:47;9.73;;;3.72;;
35602;SDS011;21725;50.836;4.368;2022-07-25T12:38:13;7.53;;;2.97;;
35602;SDS011;21725;50.836;4.368;2022-07-25T12:40:39;6.65;;;3.05;;
35602;SDS011;21725;50.836;4.368;2022-07-25T12:43:05;7.65;;;3.75;;
35602;SDS011;21725;50.836;4.368;2022-07-25T12:45:30;7.47;;;3.67;;
35602;SDS011;21725;50.836;4.368;2022-07-25T12:47:56;9.05;;;3.00;;
35602;SDS011;21725;50.836;4.368;2022-07-25T12:50:23;9.27;;;3.58;;
35602;SDS011;21725;50.836;4.368;2022-07-25T12:52:57;7.68;;;3.35;;
35602;SDS011;21725;50.836;4.368;2022-07-25T12:55:24;10.27;;;3.00;;
35602;SDS011;21725;50.836;4.368;2022-07-25T12:57:54;7.88;;;2.60;;
35602;SDS011;21725;50.836;4.368;2022-07-25T13:00:23;7.53;;;2.58;;
35602;SDS011;21725;50.836;4.368;2022-07-25T13:02:52;7.10;;;2.85;;
35602;SDS011;21725;50.836;4.368;2022-07-25T13:07:59;10.43;;;2.92;;
35602;SDS011;21725;50.836;4.368;2022-07-25T13:10:27;5.28;;;2.58;;
35602;SDS011;21725;50.836;4.368;2022-07-25T13:12:53;8.65;;;2.70;;
35602;SDS011;21725;50.836;4.368;2022-07-25T13:15:25;8.65;;;2.78;;
35602;SDS011;21725;50.836;4.368;2022-07-25T13:17:58;8.05;;;2.88;;
35602;SDS011;21725;50.836;4.368;2022-07-25T13:20:23;8.90;;;2.55;;
35602;SDS011;21725;50.836;4.368;2022-07-25T13:22:49;9.80;;;2.67;;
35602;SDS011;21725;50.836;4.368;2022-07-25T13:25:15;5.00;;;2.13;;
35602;SDS011;21725;50.836;4.368;2022-07-25T13:27:40;8.75;;;2.60;;
35602;SDS011;21725;50.836;4.368;2022-07-25T13:30:13;6.82;;;2.83;;
35602;SDS011;21725;50.836;4.368;2022-07-25T13:32:44;7.68;;;4.05;;
35602;SDS011;21725;50.836;4.368;2022-07-25T13:35:10;11.90;;;3.40;;
35602;SDS011;21725;50.836;4.368;2022-07-25T13:37:36;9.38;;;2.65;;
35602;SDS011;21725;50.836;4.368;2022-07-25T13:40:09;5.53;;;2.20;;
35602;SDS011;21725;50.836;4.368;2022-07-25T13:42:35;7.63;;;2.30;;
35602;SDS011;21725;50.836;4.368;2022-07-25T13:45:04;10.82;;;2.97;;
35602;SDS011;21725;50.836;4.368;2022-07-25T13:47:31;6.22;;;2.22;;
35602;SDS011;21725;50.836;4.368;2022-07-25T13:49:57;13.45;;;1.88;;
35602;SDS011;21725;50.836;4.368;2022-07-25T13:52:24;8.68;;;2.47;;
35602;SDS011;21725;50.836;4.368;2022-07-25T13:54:50;5.75;;;2.13;;
35602;SDS011;21725;50.836;4.368;2022-07-25T13:57:15;7.32;;;2.05;;
35602;SDS011;21725;50.836;4.368;2022-07-25T13:59:48;5.50;;;2.28;;
35602;SDS011;21725;50.836;4.368;2022-07-25T14:02:14;7.85;;;2.15;;
35602;SDS011;21725;50.836;4.368;2022-07-25T14:04:39;7.72;;;2.55;;
35602;SDS011;21725;50.836;4.368;2022-07-25T14:07:13;6.57;;;2.00;;
35602;SDS011;21725;50.836;4.368;2022-07-25T14:09:38;4.93;;;2.10;;
35602;SDS011;21725;50.836;4.368;2022-07-25T14:12:04;8.18;;;2.08;;
35602;SDS011;21725;50.836;4.368;2022-07-25T14:14:30;6.97;;;2.60;;
35602;SDS011;21725;50.836;4.368;2022-07-25T14:17:01;12.30;;;2.90;;
35602;SDS011;21725;50.836;4.368;2022-07-25T14:19:32;10.57;;;2.20;;
35602;SDS011;21725;50.836;4.368;2022-07-25T14:22:02;10.88;;;2.45;;
35602;SDS011;21725;50.836;4.368;2022-07-25T14:24:32;4.68;;;2.20;;
35602;SDS011;21725;50.836;4.368;2022-07-25T14:27:07;8.63;;;2.25;;
35602;SDS011;21725;50.836;4.368;2022-07-25T14:29:35;5.78;;;1.95;;
35602;SDS011;21725;50.836;4.368;2022-07-25T14:32:09;7.88;;;2.40;;
35602;SDS011;21725;50.836;4.368;2022-07-25T14:34:36;4.80;;;2.10;;
35602;SDS011;21725;50.836;4.368;2022-07-25T14:37:14;7.82;;;2.45;;
35602;SDS011;21725;50.836;4.368;2022-07-25T14:39:40;7.07;;;2.20;;
35602;SDS011;21725;50.836;4.368;2022-07-25T14:42:06;6.75;;;2.00;;
35602;SDS011;21725;50.836;4.368;2022-07-25T14:44:35;6.45;;;2.10;;
35602;SDS011;21725;50.836;4.368;2022-07-25T14:47:01;5.32;;;1.67;;
35602;SDS011;21725;50.836;4.368;2022-07-25T14:49:27;4.32;;;1.75;;
35602;SDS011;21725;50.836;4.368;2022-07-25T14:51:53;7.45;;;2.17;;
35602;SDS011;21725;50.836;4.368;2022-07-25T14:54:19;8.40;;;2.63;;
35602;SDS011;21725;50.836;4.368;2022-07-25T14:56:45;5.13;;;1.95;;
35602;SDS011;21725;50.836;4.368;2022-07-25T14:59:13;6.88;;;2.67;;
35602;SDS011;21725;50.836;4.368;2022-07-25T15:01:44;4.70;;;2.17;;
35602;SDS011;21725;50.836;4.368;2022-07-25T15:04:13;4.75;;;2.38;;
35602;SDS011;21725;50.836;4.368;2022-07-25T15:06:39;4.13;;;2.25;;
35602;SDS011;21725;50.836;4.368;2022-07-25T15:09:04;5.78;;;1.75;;
35602;SDS011;21725;50.836;4.368;2022-07-25T15:11:30;5.80;;;2.30;;
35602;SDS011;21725;50.836;4.368;2022-07-25T15:13:57;5.65;;;1.60;;
35602;SDS011;21725;50.836;4.368;2022-07-25T15:16:23;6.68;;;1.95;;
35602;SDS011;21725;50.836;4.368;2022-07-25T15:18:59;10.57;;;2.75;;
35602;SDS011;21725;50.836;4.368;2022-07-25T15:21:25;6.45;;;2.00;;
35602;SDS011;21725;50.836;4.368;2022-07-25T15:23:50;4.90;;;1.55;;
35602;SDS011;21725;50.836;4.368;2022-07-25T15:26:17;3.45;;;1.80;;
35602;SDS011;21725;50.836;4.368;2022-07-25T15:28:44;7.90;;;1.85;;
35602;SDS011;21725;50.836;4.368;2022-07-25T15:33:41;3.42;;;1.30;;
35602;SDS011;21725;50.836;4.368;2022-07-25T15:36:13;7.07;;;1.98;;
35602;SDS011;21725;50.836;4.368;2022-07-25T15:38:43;8.45;;;2.97;;
35602;SDS011;21725;50.836;4.368;2022-07-25T15:41:09;4.35;;;1.85;;
35602;SDS011;21725;50.836;4.368;2022-07-25T15:43:36;3.72;;;1.63;;
35602;SDS011;21725;50.836;4.368;2022-07-25T15:46:08;4.80;;;1.75;;
35602;SDS011;21725;50.836;4.368;2022-07-25T15:48:36;5.63;;;1.85;;
35602;SDS011;21725;50.836;4.368;2022-07-25T15:51:04;2.25;;;1.23;;
35602;SDS011;21725;50.836;4.368;2022-07-25T15:53:30;5.05;;;1.50;;
35602;SDS011;21725;50.836;4.368;2022-07-25T15:55:57;6.90;;;2.13;;
35602;SDS011;21725;50.836;4.368;2022-07-25T15:58:25;5.68;;;2.30;;
35602;SDS011;21725;50.836;4.368;2022-07-25T16:00:55;4.90;;;2.15;;
35602;SDS011;21725;50.836;4.368;2022-07-25T16:03:31;7.53;;;2.40;;
35602;SDS011;21725;50.836;4.368;2022-07-25T16:28:15;9.85;;;2.75;;
35602;SDS011;21725;50.836;4.368;2022-07-25T16:30:41;6.97;;;2.20;;
35602;SDS011;21725;50.836;4.368;2022-07-25T16:33:07;4.85;;;2.05;;
35602;SDS011;21725;50.836;4.368;2022-07-25T16:35:32;2.78;;;1.50;;
35602;SDS011;21725;50.836;4.368;2022-07-25T16:38:11;8.10;;;2.28;;
35602;SDS011;21725;50.836;4.368;2022-07-25T16:40:37;8.02;;;1.90;;
35602;SDS011;21725;50.836;4.368;2022-07-25T16:43:03;5.40;;;2.08;;
35602;SDS011;21725;50.836;4.368;2022-07-25T16:45:38;2.47;;;1.42;;